Time;durP1;ratioP1;P1;durP2;ratioP2;P2;SDS_P1;SDS_P2;PMS_P1;PMS_P2;Temp;Humidity;BMP_temperature;BMP_pressure;BME280_temperature;BME280_humidity;BME280_pressure;Samples;Min_cycle;Max_cycle;Signal;HPM_P1;HPM_P2
2023/01/27 09:50:59;;;;;;;7.83;5.53;;;;;;;1.67;93.18;99488.75;5150083;27;20552;-85
2023/01/27 09:54:11;;;;;;;7.33;5.73;;;;;;;2.32;90.06;99460.59;5130548;27;39570;-86
2023/01/27 09:56:53;;;;;;;7.63;5.50;;;;;;;3.07;87.04;99496.50;5111322;27;41065;-80
2023/01/27 09:59:58;;;;;;;9.77;6.00;;;;;;;3.55;82.54;99511.09;5128182;27;42466;-83
2023/01/27 10:03:16;;;;;;;10.77;6.03;;;;;;;3.81;79.35;99483.41;5111362;27;41947;-83
2023/01/27 10:06:15;;;;;;;8.30;4.90;;;;;;;4.17;77.01;99500.78;5065677;27;39958;-80
2023/01/27 10:12:26;;;;;;;6.10;5.33;;;;;;;4.42;72.74;99485.28;5127594;27;43781;-83
2023/01/27 10:15:20;;;;;;;6.83;5.37;;;;;;;4.81;72.48;99516.53;5125917;27;41176;-85
2023/01/27 10:18:05;;;;;;;5.40;4.57;;;;;;;4.75;71.83;99483.44;5131364;27;39001;-84
2023/01/27 10:20:59;;;;;;;8.37;5.80;;;;;;;4.91;71.73;99483.88;5131282;27;43034;-82
2023/01/27 10:24:00;;;;;;;6.97;5.33;;;;;;;5.24;70.20;99519.59;5130617;27;43457;-86
2023/01/27 10:27:09;;;;;;;6.43;4.97;;;;;;;5.24;68.58;99497.72;5131565;27;41208;-83
2023/01/27 10:29:45;;;;;;;8.57;5.33;;;;;;;5.45;68.44;99522.47;5127380;27;40989;-87
2023/01/27 10:32:34;;;;;;;6.20;5.10;;;;;;;5.59;69.29;99509.75;5131328;27;41712;-84
2023/01/27 10:35:30;;;;;;;6.17;4.70;;;;;;;5.70;66.67;99526.03;5130781;27;41850;-83
2023/01/27 10:48:45;;;;;;;5.90;4.07;;;;;;;5.93;65.41;99504.31;5168211;27;43219;-85
2023/01/27 10:51:33;;;;;;;6.20;4.97;;;;;;;5.90;64.39;99489.50;5149537;27;43513;-82
2023/01/27 10:54:11;;;;;;;5.17;4.53;;;;;;;6.05;65.63;99472.34;5133780;27;40458;-82
2023/01/27 10:57:18;;;;;;;7.67;5.30;;;;;;;6.47;65.60;99512.06;5134811;27;41085;-82
2023/01/27 11:00:20;;;;;;;8.60;5.70;;;;;;;6.59;62.93;99523.91;5129935;27;41688;-83
2023/01/27 11:03:20;;;;;;;9.27;5.00;;;;;;;6.30;63.20;99488.13;5120373;27;41819;-82
2023/01/27 11:12:29;;;;;;;6.77;4.90;;;;;;;6.25;64.68;99474.28;5076801;28;42207;-83
2023/01/27 11:14:59;;;;;;;7.93;5.40;;;;;;;6.61;64.90;99504.53;5079340;28;41007;-82
2023/01/27 11:17:49;;;;;;;6.80;5.23;;;;;;;6.81;62.62;99523.09;5079406;28;38910;-85
2023/01/27 11:20:28;;;;;;;5.50;4.63;;;;;;;6.78;60.97;99523.22;5079353;28;41100;-86
2023/01/27 11:23:18;;;;;;;5.70;4.27;;;;;;;6.55;60.05;99499.50;5078956;28;42953;-85
2023/01/27 11:26:13;;;;;;;8.37;4.57;;;;;;;6.50;60.80;99485.66;5077492;27;41536;-82
2023/01/27 11:29:10;;;;;;;6.03;5.27;;;;;;;6.87;61.34;99521.16;5139527;27;37266;-83
2023/01/27 11:35:18;;;;;;;9.03;5.80;;;;;;;7.39;61.49;99510.38;5139062;27;43542;-84
2023/01/27 11:37:49;;;;;;;6.60;4.30;;;;;;;7.19;59.57;99482.16;5138217;27;41454;-88
2023/01/27 11:40:58;;;;;;;6.23;4.53;;;;;;;7.35;59.15;99505.28;5138097;27;38782;-84
2023/01/27 11:43:29;;;;;;;4.80;4.03;;;;;;;7.49;58.70;99526.66;5122668;27;41185;-86
2023/01/27 11:46:22;;;;;;;4.37;3.97;;;;;;;7.55;59.57;99519.38;5140864;27;43104;-85
2023/01/27 11:48:53;;;;;;;5.03;4.43;;;;;;;7.58;58.01;99537.69;5139811;27;41338;-86
2023/01/27 11:51:34;;;;;;;5.40;4.30;;;;;;;7.49;59.08;99522.25;5140409;27;41692;-85
2023/01/27 11:54:09;;;;;;;6.07;4.03;;;;;;;7.18;57.76;99505.91;5139938;27;42424;-84
2023/01/27 11:56:40;;;;;;;6.07;4.87;;;;;;;7.14;57.17;99539.44;5140985;27;42214;-86
2023/01/27 11:59:34;;;;;;;5.30;4.13;;;;;;;7.07;57.98;99518.63;5140136;27;41833;-88
2023/01/27 12:02:45;;;;;;;9.33;7.30;;;;;;;7.10;58.27;99516.75;5141008;27;41953;-85
2023/01/27 12:17:52;;;;;;;13.27;9.00;;;;;;;7.61;58.03;99507.72;5114254;27;42221;-84
2023/01/27 12:20:51;;;;;;;8.10;5.40;;;;;;;7.47;57.92;99481.06;5114589;27;43337;-85
2023/01/27 12:26:11;;;;;;;17.87;10.50;;;;;;;7.45;57.58;99482.91;5151875;27;38764;-89
2023/01/27 12:28:43;;;;;;;8.47;6.03;;;;;;;8.60;56.81;99498.28;5136238;27;42094;-89
2023/01/27 12:31:32;;;;;;;7.90;6.50;;;;;;;10.12;54.24;99485.75;5136664;27;41502;-88
2023/01/27 12:34:42;;;;;;;8.17;6.47;;;;;;;13.44;47.68;99510.06;5138156;27;41468;-86
2023/01/27 12:37:22;;;;;;;5.70;4.93;;;;;;;14.81;45.53;99537.38;5154248;27;39125;-80
2023/01/27 12:42:57;;;;;;;3.20;2.90;;;;;;;14.73;43.41;99508.56;5157468;27;41692;-85
2023/01/27 12:46:05;;;;;;;3.60;2.83;;;;;;;15.21;42.83;99490.91;5157132;27;41255;-84
2023/01/27 12:49:15;;;;;;;4.83;3.03;;;;;;;14.36;42.08;99536.84;5143711;27;40181;-86
2023/01/27 12:57:33;;;;;;;2.33;2.13;;;;;;;11.51;44.77;99495.94;5166059;27;43165;-88
2023/01/27 13:00:01;;;;;;;3.30;2.80;;;;;;;11.08;46.09;99489.50;5139481;27;39939;-88
2023/01/27 13:02:37;;;;;;;3.13;2.77;;;;;;;10.84;48.06;99489.97;5139855;27;40551;-84
2023/01/27 13:05:27;;;;;;;4.30;2.80;;;;;;;10.49;48.35;99478.59;5140052;27;43253;-88
2023/01/27 13:08:17;;;;;;;2.77;2.50;;;;;;;10.01;49.43;99435.16;5139886;27;41266;-85
2023/01/27 13:11:15;;;;;;;2.30;2.10;;;;;;;9.86;49.55;99480.91;5134064;27;39190;-84
2023/01/27 13:14:16;;;;;;;3.20;2.57;;;;;;;9.33;50.45;99473.78;5134439;27;40449;-85
2023/01/27 13:16:50;;;;;;;2.50;2.20;;;;;;;8.77;50.15;99469.38;5136016;27;41952;-87
2023/01/27 13:19:30;;;;;;;2.30;2.00;;;;;;;8.47;51.64;99455.75;5135679;27;42366;-86
2023/01/27 13:22:23;;;;;;;2.80;1.93;;;;;;;8.12;53.08;99430.88;5135688;27;40542;-85
2023/01/27 13:24:59;;;;;;;2.53;2.33;;;;;;;7.73;53.72;99390.38;5134875;27;41010;-88
2023/01/27 13:30:55;;;;;;;2.47;2.27;;;;;;;8.00;55.02;99455.13;5134854;27;41210;-88
2023/01/27 13:34:04;;;;;;;2.27;2.07;;;;;;;7.69;54.34;99407.25;5135367;27;39924;-84
2023/01/27 13:36:59;;;;;;;4.07;2.07;;;;;;;7.90;54.89;99453.81;5135802;27;40671;-84
2023/01/27 13:39:53;;;;;;;2.67;2.47;;;;;;;7.81;55.06;99452.41;5117805;27;42055;-83
2023/01/27 13:42:31;;;;;;;2.53;2.20;;;;;;;7.41;55.37;99397.88;5136086;27;41724;-89
2023/01/27 13:45:22;;;;;;;2.37;2.17;;;;;;;7.44;56.05;99413.53;5135652;27;38747;-86
2023/01/27 13:48:26;;;;;;;2.77;2.27;;;;;;;7.49;56.07;99443.19;5136051;27;41592;-83
2023/01/27 13:51:10;;;;;;;2.83;2.30;;;;;;;7.39;56.05;99454.19;5134922;27;41936;-87
2023/01/27 13:53:38;;;;;;;2.40;2.20;;;;;;;7.14;56.42;99443.75;5134161;27;41509;-88
2023/01/27 13:56:28;;;;;;;3.47;2.37;;;;;;;6.87;57.35;99421.13;5141441;27;38793;-86
2023/01/27 13:59:29;;;;;;;2.23;2.00;;;;;;;6.76;57.64;99430.28;5134654;27;42218;-85
2023/01/27 14:09:09;;;;;;;3.03;2.70;;;;;;;6.33;58.60;99420.47;5134676;27;39955;-86
2023/01/27 14:12:11;;;;;;;4.03;2.73;;;;;;;6.43;58.74;99453.41;5135410;27;42513;-86
2023/01/27 14:14:48;;;;;;;2.70;2.23;;;;;;;6.02;58.99;99404.09;5134888;27;41948;-86
2023/01/27 14:17:33;;;;;;;3.17;2.57;;;;;;;6.31;59.43;99458.25;5135562;27;41504;-87
2023/01/27 14:20:23;;;;;;;4.20;1.90;;;;;;;5.71;59.31;99372.72;5136751;27;39084;-87
2023/01/27 14:23:01;;;;;;;3.53;2.50;;;;;;;6.03;59.58;99443.47;5136099;27;40490;-87
2023/01/27 14:25:35;;;;;;;4.23;2.77;;;;;;;5.81;60.14;99410.06;5134345;27;42835;-86
2023/01/27 14:28:11;;;;;;;3.30;2.60;;;;;;;5.90;60.62;99426.41;5135804;27;41098;-89
2023/01/27 14:30:43;;;;;;;4.63;2.90;;;;;;;5.73;60.69;99402.44;5135291;27;40008;-91
2023/01/27 14:33:18;;;;;;;5.07;3.10;;;;;;;6.05;60.53;99451.31;5135100;27;42151;-88
2023/01/27 14:35:53;;;;;;;3.20;2.50;;;;;;;5.92;60.95;99436.88;5137184;27;42705;-87
2023/01/27 14:38:31;;;;;;;4.43;2.77;;;;;;;5.92;61.01;99447.41;5138384;27;41308;-88
2023/01/27 14:41:13;;;;;;;2.93;2.53;;;;;;;5.93;61.51;99449.97;5138349;27;40002;-86
2023/01/27 14:43:47;;;;;;;2.53;2.20;;;;;;;5.88;61.12;99440.47;5155770;27;40682;-89
2023/01/27 14:46:25;;;;;;;2.90;2.57;;;;;;;5.74;61.20;99433.06;5138677;27;43294;-90
2023/01/27 14:49:05;;;;;;;2.57;2.30;;;;;;;5.63;61.29;99428.16;5138476;27;41958;-88
2023/01/27 14:51:38;;;;;;;3.27;2.70;;;;;;;5.70;61.36;99444.56;5155623;27;39947;-90
2023/01/27 14:54:29;;;;;;;4.60;3.00;;;;;;;5.76;61.67;99462.78;5137331;27;40098;-87
2023/01/27 14:57:18;;;;;;;3.53;2.90;;;;;;;5.51;62.25;99423.31;5141053;27;41899;-85
2023/01/27 14:59:59;;;;;;;7.03;4.70;;;;;;;5.67;62.48;99461.31;5137886;27;42337;-86
2023/01/27 15:02:40;;;;;;;8.27;4.67;;;;;;;5.51;62.36;99433.81;5138262;27;40021;-86
2023/01/27 15:05:15;;;;;;;8.43;5.20;;;;;;;5.60;62.22;99464.19;5153087;27;41858;-87
2023/01/27 15:07:52;;;;;;;10.97;6.73;;;;;;;5.22;62.72;99400.63;5137595;27;44418;-86
2023/01/27 15:10:26;;;;;;;6.87;4.70;;;;;;;5.54;63.23;99465.25;5134557;27;40991;-84
2023/01/27 15:13:27;;;;;;;4.50;3.87;;;;;;;5.56;63.03;99473.09;5137088;27;38992;-85
2023/01/27 15:16:23;;;;;;;3.50;3.20;;;;;;;5.36;63.32;99456.19;5155078;27;40596;-86
2023/01/27 15:19:14;;;;;;;3.73;3.27;;;;;;;5.39;63.66;99476.25;5131268;27;42614;-87
2023/01/27 15:22:17;;;;;;;3.33;3.00;;;;;;;5.29;63.95;99470.44;5115655;27;43505;-85
2023/01/27 15:24:57;;;;;;;4.10;3.30;;;;;;;5.14;64.42;99449.91;5135101;27;39071;-87
2023/01/27 15:27:27;;;;;;;3.63;3.30;;;;;;;5.28;64.48;99478.34;5133451;27;41967;-85
2023/01/27 15:29:55;;;;;;;4.33;3.07;;;;;;;5.07;64.62;99448.34;5153093;27;42912;-88
2023/01/27 15:32:34;;;;;;;3.37;2.90;;;;;;;5.18;64.32;99476.94;5135846;27;41103;-87
2023/01/27 15:35:32;;;;;;;4.97;3.50;;;;;;;5.17;65.02;99481.31;5149978;27;39866;-86
2023/01/27 15:38:01;;;;;;;4.10;3.33;;;;;;;4.87;65.00;99435.00;5134771;27;40332;-87
2023/01/27 15:40:29;;;;;;;8.13;5.47;;;;;;;5.04;65.16;99483.44;5132241;27;41693;-87
2023/01/27 15:43:05;;;;;;;9.60;6.67;;;;;;;5.07;65.29;99495.59;5136763;27;41173;-86
2023/01/27 15:45:35;;;;;;;9.07;5.70;;;;;;;4.95;65.18;99472.34;5131685;27;38830;-86
2023/01/27 15:48:07;;;;;;;11.30;7.63;;;;;;;4.93;65.37;99476.81;5144799;27;42333;-85
2023/01/27 15:50:38;;;;;;;10.67;7.47;;;;;;;4.96;65.57;99487.19;5137700;27;41471;-85
2023/01/27 15:53:14;;;;;;;10.87;6.97;;;;;;;5.03;65.51;99494.00;5133357;27;41208;-85
2023/01/27 15:55:49;;;;;;;6.67;4.57;;;;;;;4.93;65.81;99479.44;5135445;27;40069;-85
2023/01/27 15:58:31;;;;;;;5.67;4.03;;;;;;;4.86;65.83;99477.88;5135858;27;41779;-85
2023/01/27 16:01:01;;;;;;;5.03;3.97;;;;;;;4.66;65.98;99457.47;5132430;27;43219;-84
2023/01/27 16:03:33;;;;;;;7.60;4.17;;;;;;;4.85;66.14;99478.78;5135418;27;41015;-85
2023/01/27 16:06:08;;;;;;;10.10;7.30;;;;;;;4.66;66.51;99447.84;5147584;27;40151;-86
2023/01/27 16:08:43;;;;;;;8.87;6.27;;;;;;;4.53;66.51;99429.88;5143845;27;43285;-86
2023/01/27 16:11:38;;;;;;;21.67;13.10;;;;;;;4.62;66.65;99450.59;5142160;27;44315;-85
2023/01/27 16:14:42;;;;;;;10.83;6.87;;;;;;;4.84;66.80;99492.81;5130587;27;42319;-86
2023/01/27 16:17:18;;;;;;;8.67;5.53;;;;;;;4.69;66.80;99478.38;5133262;27;38860;-86
2023/01/27 16:19:53;;;;;;;6.57;4.67;;;;;;;4.79;66.90;99492.09;5134331;27;41114;-84
2023/01/27 16:22:22;;;;;;;5.73;4.53;;;;;;;4.67;67.02;99478.44;5135876;27;41993;-85
2023/01/27 16:24:55;;;;;;;4.80;4.20;;;;;;;4.60;66.96;99471.63;5136732;27;41356;-83
2023/01/27 16:27:35;;;;;;;5.53;4.10;;;;;;;4.77;67.43;99504.41;5150169;27;39929;-85
2023/01/27 16:30:19;;;;;;;7.10;4.67;;;;;;;4.51;67.28;99466.66;5128644;27;41769;-84
2023/01/27 16:33:01;;;;;;;6.97;4.63;;;;;;;4.67;67.61;99494.16;5135680;27;44325;-86
2023/01/27 16:35:33;;;;;;;6.57;5.27;;;;;;;4.52;67.47;99472.75;5135135;27;40973;-84
2023/01/27 16:38:14;;;;;;;5.37;4.77;;;;;;;4.55;67.44;99481.41;5128010;27;40096;-85
2023/01/27 16:40:49;;;;;;;5.03;4.10;;;;;;;4.70;67.65;99516.81;5131246;27;40554;-83
2023/01/27 16:43:19;;;;;;;5.17;3.93;;;;;;;4.68;67.63;99514.25;5135247;27;42986;-85
2023/01/27 16:45:51;;;;;;;4.97;4.33;;;;;;;4.55;68.02;99499.75;5134480;27;43097;-84
2023/01/27 16:48:39;;;;;;;8.40;6.17;;;;;;;4.62;68.28;99510.94;5133690;27;40125;-87
2023/01/27 16:51:17;;;;;;;9.90;5.67;;;;;;;4.41;68.27;99483.53;5132791;27;40811;-87
2023/01/27 16:53:48;;;;;;;7.97;5.80;;;;;;;4.60;68.00;99524.09;5157003;27;43395;-84
2023/01/27 16:56:21;;;;;;;6.20;5.60;;;;;;;4.11;68.50;99437.19;5144474;27;41368;-84
2023/01/27 16:58:50;;;;;;;8.50;5.87;;;;;;;4.47;68.50;99514.81;5134396;27;38907;-84
2023/01/27 17:01:27;;;;;;;6.50;5.17;;;;;;;4.23;68.39;99484.03;5133631;27;41736;-84
2023/01/27 17:04:01;;;;;;;8.73;5.50;;;;;;;4.22;68.72;99479.69;5137615;27;41304;-83
2023/01/27 17:06:30;;;;;;;6.90;4.97;;;;;;;4.49;68.69;99526.16;5135915;27;40970;-83
2023/01/27 17:08:59;;;;;;;7.17;5.20;;;;;;;4.56;68.82;99540.84;5151114;27;38967;-83
2023/01/27 17:11:30;;;;;;;6.70;5.03;;;;;;;4.54;68.72;99526.91;5139654;27;42502;-83
2023/01/27 17:14:00;;;;;;;5.97;4.70;;;;;;;4.42;69.02;99516.72;5134622;27;43170;-84
2023/01/27 17:16:34;;;;;;;6.63;5.17;;;;;;;4.52;68.78;99539.19;5135097;27;40756;-84
2023/01/27 17:19:08;;;;;;;5.43;4.70;;;;;;;4.41;69.03;99514.16;5157034;27;39312;-83
2023/01/27 17:21:39;;;;;;;6.83;4.83;;;;;;;4.40;69.19;99526.41;5146370;27;41796;-83
2023/01/27 17:24:15;;;;;;;5.80;4.47;;;;;;;4.40;69.19;99529.03;5138557;27;42891;-84
2023/01/27 17:26:48;;;;;;;6.87;5.13;;;;;;;4.46;69.18;99536.72;5132769;27;42233;-83
2023/01/27 17:29:19;;;;;;;8.70;5.83;;;;;;;4.34;69.53;99534.41;5148382;27;40015;-84
2023/01/27 17:31:49;;;;;;;9.17;6.77;;;;;;;4.36;70.06;99527.38;5132150;27;41748;-83
2023/01/27 17:34:19;;;;;;;7.37;5.83;;;;;;;4.46;69.67;99541.09;5115722;27;42241;-83
2023/01/27 17:37:15;;;;;;;8.47;6.07;;;;;;;4.35;70.14;99530.91;5115920;27;42657;-84
2023/01/27 17:39:43;;;;;;;8.57;6.37;;;;;;;4.44;70.51;99546.41;5115940;27;39032;-85
2023/01/27 17:42:16;;;;;;;7.40;5.80;;;;;;;4.44;70.75;99545.53;5132755;27;40976;-85
2023/01/27 17:44:44;;;;;;;6.97;5.50;;;;;;;4.32;70.71;99531.84;5115933;27;41934;-85
2023/01/27 17:47:15;;;;;;;8.10;4.90;;;;;;;4.38;71.25;99541.31;5132896;27;41918;-82
2023/01/27 17:49:45;;;;;;;4.40;3.33;;;;;;;4.38;71.28;99550.94;5116322;27;38698;-85
2023/01/27 17:52:18;;;;;;;2.77;2.43;;;;;;;4.24;71.64;99523.31;5113699;27;40646;-86
2023/01/27 17:54:46;;;;;;;2.90;2.53;;;;;;;4.25;71.36;99534.66;5130854;27;41927;-85
2023/01/27 17:57:18;;;;;;;2.43;2.23;;;;;;;4.23;71.16;99526.84;5143406;27;41262;-84
2023/01/27 17:59:50;;;;;;;7.07;4.37;;;;;;;4.19;71.34;99524.34;5139944;27;41400;-83
2023/01/27 18:02:26;;;;;;;7.00;4.90;;;;;;;4.17;71.52;99526.16;5131118;27;40626;-83
2023/01/27 18:04:57;;;;;;;12.47;8.27;;;;;;;4.28;71.44;99560.81;5137008;27;41726;-84
2023/01/27 18:07:27;;;;;;;16.80;10.20;;;;;;;4.26;71.40;99559.97;5136524;27;40961;-84
2023/01/27 18:09:56;;;;;;;10.30;6.83;;;;;;;4.25;71.69;99566.13;5146369;27;38649;-85
2023/01/27 18:12:33;;;;;;;7.80;4.93;;;;;;;4.24;71.90;99570.50;5137911;27;42240;-84
2023/01/27 18:15:39;;;;;;;7.33;4.60;;;;;;;4.26;71.65;99565.22;5139394;27;43275;-84
2023/01/27 18:18:22;;;;;;;5.13;4.10;;;;;;;4.16;71.67;99555.88;5139790;27;42436;-85
2023/01/27 18:20:52;;;;;;;5.13;3.47;;;;;;;4.15;71.72;99556.78;5134657;27;38939;-83
2023/01/27 18:23:25;;;;;;;3.47;3.00;;;;;;;4.15;72.06;99554.16;5148037;27;41083;-85
2023/01/27 18:26:03;;;;;;;3.27;2.97;;;;;;;4.15;72.04;99559.41;5155274;27;43910;-84
2023/01/27 18:28:34;;;;;;;4.33;3.30;;;;;;;4.26;71.93;99578.34;5135290;27;41343;-84
